Terminal Aerodrome Forecast
Issued by NWS Sioux Falls, SD

Home | Current Version | Previous Version | Text Only | Print | Product List | Glossary On
Versions: 1 2 3 4 5 6 7 8 9 10 11 12 13 14 15 16 17
086
FTUS43 KFSD 261124
TAFFSD
TAF
KFSD 261124Z 2612/2712 24005KT P6SM SCT060
     FM261400 26009KT P6SM FEW250
     FM270000 21004KT P6SM FEW250
     FM270300 21006KT 5SM BR SCT200
     FM270900 18005KT 2SM BR SCT200=

USA.gov is the U.S. government's official web portal to all federal, state and local government web resources and services.